createdAt,value
2018-12-29T00:01:42.228Z,6.13
2018-12-29T00:07:01.496Z,7.53
2018-12-29T00:09:31.814Z,7.63
2018-12-29T00:12:21.287Z,8.30
2018-12-29T00:14:55.168Z,8.23
2018-12-29T00:17:32.713Z,7.90
2018-12-29T00:20:09.785Z,7.70
2018-12-29T00:22:40.040Z,8.47
2018-12-29T00:25:10.333Z,9.10
2018-12-29T00:27:46.735Z,7.60
2018-12-29T00:30:17.328Z,7.67
2018-12-29T00:32:55.399Z,9.53
2018-12-29T00:35:25.765Z,8.87
2018-12-29T00:37:56.209Z,9.80
2018-12-29T00:40:26.526Z,8.80
2018-12-29T00:42:56.931Z,7.70
2018-12-29T00:45:29.278Z,8.63
2018-12-29T00:48:12.274Z,9.00
2018-12-29T00:50:41.168Z,8.57
2018-12-29T00:53:11.535Z,8.57
2018-12-29T00:55:41.868Z,8.53
2018-12-29T00:58:12.179Z,8.23
2018-12-29T01:00:48.836Z,8.20
2018-12-29T01:03:39.724Z,7.53
2018-12-29T01:06:10.302Z,7.50
2018-12-29T01:08:41.135Z,7.33
2018-12-29T01:11:11.443Z,7.50
2018-12-29T01:13:41.798Z,7.10
2018-12-29T01:19:01.512Z,7.17
2018-12-29T01:21:31.785Z,6.67
2018-12-29T01:24:56.224Z,6.90
2018-12-29T01:27:23.844Z,6.80
2018-12-29T01:29:54.326Z,7.20
2018-12-29T01:32:24.882Z,6.87
2018-12-29T01:35:16.841Z,6.87
2018-12-29T01:37:47.278Z,6.47
2018-12-29T01:40:17.906Z,7.00
2018-12-29T01:42:48.214Z,6.50
2018-12-29T01:45:25.002Z,7.03
2018-12-29T01:47:55.897Z,6.97
2018-12-29T01:50:26.377Z,7.20
2018-12-29T01:52:57.600Z,6.70
2018-12-29T01:55:28.080Z,7.77
2018-12-29T01:57:58.396Z,6.27
2018-12-29T02:00:28.731Z,6.50
2018-12-29T02:02:59.081Z,7.00
2018-12-29T02:05:29.437Z,6.53
2018-12-29T02:07:59.782Z,6.90
2018-12-29T02:10:55.136Z,6.50
2018-12-29T02:13:25.569Z,6.20
2018-12-29T02:18:45.516Z,5.63
2018-12-29T02:21:15.904Z,6.03
2018-12-29T02:23:46.304Z,5.70
2018-12-29T02:26:22.149Z,5.00
2018-12-29T02:28:59.051Z,5.30
2018-12-29T02:31:29.382Z,5.97
2018-12-29T02:33:59.781Z,5.97
2018-12-29T02:36:36.505Z,5.67
2018-12-29T02:39:13.292Z,5.20
2018-12-29T02:41:43.630Z,5.60
2018-12-29T02:44:13.922Z,5.30
2018-12-29T02:46:44.285Z,5.13
2018-12-29T02:49:14.650Z,5.70
2018-12-29T02:54:36.247Z,5.40
2018-12-29T02:57:06.611Z,5.27
2018-12-29T02:59:36.966Z,5.30
2018-12-29T03:02:07.509Z,4.97
2018-12-29T03:04:38.123Z,5.97
2018-12-29T03:07:27.787Z,5.80
2018-12-29T03:13:02.462Z,5.77
2018-12-29T03:15:32.801Z,5.13
2018-12-29T03:20:54.361Z,5.87
2018-12-29T03:23:30.931Z,5.37
2018-12-29T03:26:02.959Z,5.50
2018-12-29T03:28:33.307Z,5.83
2018-12-29T03:31:03.631Z,5.40
2018-12-29T03:33:34.366Z,5.57
2018-12-29T03:36:10.846Z,5.93
2018-12-29T03:38:42.853Z,6.33
2018-12-29T03:41:13.325Z,6.33
2018-12-29T03:44:02.713Z,5.80
2018-12-29T03:46:33.365Z,5.50
2018-12-29T03:49:03.713Z,6.80
2018-12-29T03:51:34.111Z,6.07
2018-12-29T03:54:04.425Z,6.53
2018-12-29T03:56:53.748Z,6.37
2018-12-29T03:59:24.397Z,6.10
2018-12-29T04:01:55.098Z,6.43
2018-12-29T04:04:25.357Z,6.60
2018-12-29T04:06:55.933Z,6.20
2018-12-29T04:09:33.273Z,6.50
2018-12-29T04:12:41.817Z,6.53
2018-12-29T04:15:12.309Z,6.80
2018-12-29T04:17:46.055Z,6.50
2018-12-29T04:20:16.454Z,6.43
2018-12-29T04:22:46.867Z,7.00
2018-12-29T04:28:15.000Z,7.00
2018-12-29T04:30:47.294Z,7.10
2018-12-29T04:33:17.875Z,7.50
2018-12-29T04:35:48.225Z,7.33
2018-12-29T04:38:20.699Z,6.83
2018-12-29T04:41:10.198Z,6.13
2018-12-29T04:43:40.521Z,7.93
2018-12-29T04:46:11.196Z,6.83
2018-12-29T04:48:41.592Z,6.77
2018-12-29T04:51:11.915Z,7.27
2018-12-29T04:53:44.246Z,6.97
2018-12-29T04:56:22.555Z,7.10
2018-12-29T04:58:53.325Z,7.53
2018-12-29T05:01:24.546Z,6.37
2018-12-29T05:04:14.222Z,7.30
2018-12-29T05:06:44.616Z,6.63
2018-12-29T05:09:14.943Z,6.97
2018-12-29T05:14:27.985Z,6.30
2018-12-29T05:16:58.425Z,6.83
2018-12-29T05:19:29.573Z,6.87
2018-12-29T05:21:59.856Z,6.80
2018-12-29T05:24:30.515Z,6.80
2018-12-29T05:27:00.819Z,7.17
2018-12-29T05:29:31.122Z,7.60
2018-12-29T05:34:47.479Z,6.53
2018-12-29T05:37:18.034Z,6.47
2018-12-29T05:39:48.621Z,6.43
2018-12-29T05:42:18.997Z,6.80
2018-12-29T05:44:49.372Z,7.07
2018-12-29T05:50:32.901Z,7.00
2018-12-29T05:56:05.770Z,6.47
2018-12-29T05:58:36.145Z,7.07
2018-12-29T06:01:06.531Z,7.00
2018-12-29T06:03:37.062Z,7.30
2018-12-29T06:06:07.369Z,7.00
2018-12-29T06:08:43.680Z,7.27
2018-12-29T06:11:14.003Z,7.53
2018-12-29T06:13:44.334Z,8.23
2018-12-29T06:16:33.961Z,7.27
2018-12-29T06:19:04.457Z,7.17
2018-12-29T06:21:36.651Z,7.73
2018-12-29T06:24:10.049Z,7.27
2018-12-29T06:26:40.460Z,7.13
2018-12-29T06:29:10.826Z,7.60
2018-12-29T06:31:41.262Z,8.23
2018-12-29T06:34:17.575Z,7.70
2018-12-29T06:36:47.891Z,8.10
2018-12-29T06:39:18.453Z,7.37
2018-12-29T06:41:48.820Z,7.53
2018-12-29T06:47:08.454Z,6.77
2018-12-29T06:49:38.767Z,7.07
2018-12-29T06:52:09.102Z,7.27
2018-12-29T06:54:39.518Z,7.40
2018-12-29T06:57:09.839Z,8.10
2018-12-29T06:59:46.467Z,7.43
2018-12-29T07:02:16.821Z,9.10
2018-12-29T07:04:47.248Z,7.30
2018-12-29T07:07:18.387Z,8.70
2018-12-29T07:09:49.621Z,7.30
2018-12-29T07:12:19.923Z,8.10
2018-12-29T07:14:50.299Z,7.70
2018-12-29T07:17:20.645Z,8.63
2018-12-29T07:19:50.966Z,9.20
2018-12-29T07:22:39.898Z,8.73
2018-12-29T07:25:08.663Z,8.63
2018-12-29T07:27:39.023Z,8.53
2018-12-29T07:30:09.713Z,8.90
2018-12-29T07:32:46.128Z,8.87
2018-12-29T07:35:16.922Z,8.00
2018-12-29T07:41:01.173Z,7.60
2018-12-29T07:43:31.617Z,8.90
2018-12-29T07:46:01.934Z,8.90
2018-12-29T07:51:41.003Z,9.00
2018-12-29T07:54:11.338Z,9.50
2018-12-29T07:56:41.722Z,9.33
2018-12-29T07:59:18.460Z,9.87
2018-12-29T08:01:54.777Z,9.67
2018-12-29T08:07:07.633Z,10.13
2018-12-29T08:09:44.340Z,10.37
2018-12-29T08:12:14.663Z,9.63
2018-12-29T08:14:45.004Z,9.63
2018-12-29T08:17:15.389Z,10.10
2018-12-29T08:19:51.615Z,10.13
2018-12-29T08:22:22.043Z,9.57
2018-12-29T08:30:30.229Z,9.93
2018-12-29T08:33:00.525Z,10.27
2018-12-29T08:35:31.187Z,10.17
2018-12-29T08:38:01.515Z,10.23
2018-12-29T08:40:31.915Z,11.10
2018-12-29T08:43:02.562Z,10.03
2018-12-29T08:45:34.834Z,9.47
2018-12-29T08:48:05.571Z,9.17
2018-12-29T08:50:42.314Z,9.67
2018-12-29T08:53:12.786Z,9.43
2018-12-29T08:55:44.972Z,8.20
2018-12-29T08:58:15.334Z,8.03
2018-12-29T09:00:45.651Z,8.50
2018-12-29T09:03:22.605Z,6.93
2018-12-29T09:06:00.838Z,7.60
2018-12-29T09:08:31.336Z,7.50
2018-12-29T09:11:02.294Z,7.93
2018-12-29T09:14:12.383Z,8.87
2018-12-29T09:22:34.224Z,6.23
2018-12-29T09:25:04.675Z,7.43
2018-12-29T09:27:35.958Z,7.30
2018-12-29T09:30:07.062Z,7.73
2018-12-29T09:32:44.290Z,7.93
2018-12-29T09:35:14.668Z,6.20
2018-12-29T09:37:44.986Z,7.27
2018-12-29T09:40:15.585Z,6.80
2018-12-29T09:42:45.934Z,6.10
2018-12-29T09:45:16.257Z,5.63
2018-12-29T09:47:46.568Z,5.37
2018-12-29T09:50:23.060Z,5.70
2018-12-29T09:53:12.362Z,4.70
2018-12-29T09:55:42.712Z,5.60
2018-12-29T09:58:13.035Z,5.53
2018-12-29T10:00:43.301Z,5.43
2018-12-29T10:03:13.646Z,5.67
2018-12-29T10:05:44.020Z,5.27
2018-12-29T10:08:14.351Z,4.93
2018-12-29T10:10:51.430Z,5.70
2018-12-29T10:13:21.954Z,6.33
2018-12-29T10:15:52.322Z,5.37
2018-12-29T10:18:22.728Z,5.63
2018-12-29T10:20:53.047Z,6.37
2018-12-29T10:23:29.740Z,6.50
2018-12-29T10:26:00.054Z,5.67
2018-12-29T10:28:40.921Z,5.67
2018-12-29T10:31:11.239Z,5.40
2018-12-29T10:34:00.742Z,5.63
2018-12-29T10:36:31.162Z,5.60
2018-12-29T10:39:01.429Z,5.63
2018-12-29T10:41:31.792Z,6.63
2018-12-29T10:44:02.434Z,5.93
2018-12-29T10:46:32.849Z,5.60
2018-12-29T10:49:03.198Z,5.67
2018-12-29T10:51:35.856Z,6.33
2018-12-29T10:54:25.601Z,6.27
2018-12-29T10:57:16.444Z,6.37
2018-12-29T10:59:46.892Z,5.77
2018-12-29T11:02:17.271Z,5.70
2018-12-29T11:04:47.636Z,7.17
2018-12-29T11:07:17.940Z,7.03
2018-12-29T11:09:48.307Z,6.77
2018-12-29T11:12:18.616Z,6.53
2018-12-29T11:14:48.871Z,6.60
2018-12-29T11:17:19.488Z,6.30
2018-12-29T11:19:49.819Z,6.60
2018-12-29T11:22:20.168Z,7.17
2018-12-29T11:25:15.263Z,7.23
2018-12-29T11:27:45.600Z,6.77
2018-12-29T11:30:23.496Z,7.93
2018-12-29T11:32:54.042Z,7.60
2018-12-29T11:35:28.829Z,7.97
2018-12-29T11:41:07.330Z,7.83
2018-12-29T11:43:37.662Z,8.00
2018-12-29T11:49:10.064Z,7.27
2018-12-29T11:51:40.476Z,7.43
2018-12-29T11:54:12.401Z,7.80
2018-12-29T11:57:01.819Z,7.63
2018-12-29T11:59:32.473Z,7.77
2018-12-29T12:04:47.085Z,7.53
2018-12-29T12:07:41.220Z,8.10
2018-12-29T12:10:14.085Z,7.73
2018-12-29T12:13:04.694Z,8.33
2018-12-29T12:15:35.080Z,8.53
2018-12-29T12:18:06.021Z,8.23
2018-12-29T12:20:36.442Z,8.13
2018-12-29T12:23:06.801Z,7.70
2018-12-29T12:25:37.133Z,8.50
2018-12-29T12:28:07.794Z,8.07
2018-12-29T12:30:41.398Z,8.77
2018-12-29T12:33:22.934Z,8.37
2018-12-29T12:35:53.289Z,8.47
2018-12-29T12:38:23.835Z,8.67
2018-12-29T12:40:54.217Z,8.43
2018-12-29T12:43:24.647Z,8.30
2018-12-29T12:46:05.820Z,8.80
2018-12-29T12:48:36.179Z,9.50
2018-12-29T12:53:56.121Z,8.23
2018-12-29T12:56:33.147Z,8.70
2018-12-29T12:59:03.645Z,9.63
2018-12-29T13:01:34.023Z,9.17
2018-12-29T13:04:04.319Z,9.03
2018-12-29T13:06:34.654Z,9.03
2018-12-29T13:12:26.385Z,9.10
2018-12-29T13:14:56.794Z,9.77
2018-12-29T13:17:27.074Z,8.73
2018-12-29T13:19:57.400Z,9.40
2018-12-29T13:22:28.052Z,8.73
2018-12-29T13:25:09.484Z,9.60
2018-12-29T13:30:36.327Z,9.10
2018-12-29T13:33:08.708Z,8.77
2018-12-29T13:35:39.059Z,8.87
2018-12-29T13:38:09.760Z,8.87
2018-12-29T13:43:29.862Z,9.23
2018-12-29T13:46:00.288Z,9.27
2018-12-29T13:48:37.196Z,9.43
2018-12-29T13:51:07.505Z,9.60
2018-12-29T13:53:37.803Z,9.23
2018-12-29T13:56:08.209Z,8.93
2018-12-29T13:58:38.784Z,9.40
2018-12-29T14:01:09.123Z,8.80
2018-12-29T14:03:39.455Z,8.63
2018-12-29T14:06:09.813Z,8.90
2018-12-29T14:11:31.794Z,9.73
2018-12-29T14:14:02.335Z,8.53
2018-12-29T14:16:32.697Z,9.43
2018-12-29T14:19:12.071Z,10.70
2018-12-29T14:21:42.715Z,10.07
2018-12-29T14:27:18.943Z,10.47
2018-12-29T14:29:52.067Z,10.20
2018-12-29T14:32:43.298Z,10.70
2018-12-29T14:35:36.171Z,9.10
2018-12-29T14:38:19.121Z,9.23
2018-12-29T14:43:53.203Z,8.30
2018-12-29T14:49:16.320Z,9.20
2018-12-29T14:55:00.424Z,9.50
2018-12-29T14:57:34.630Z,10.03
2018-12-29T15:00:07.938Z,9.50
2018-12-29T15:02:39.739Z,9.60
2018-12-29T15:05:14.238Z,10.67
2018-12-29T15:07:45.294Z,11.10
2018-12-29T15:10:19.554Z,12.13
2018-12-29T15:18:43.625Z,11.40
2018-12-29T15:21:45.379Z,10.83
2018-12-29T15:24:55.222Z,10.40
2018-12-29T15:27:25.656Z,11.03
2018-12-29T15:29:56.051Z,11.13
2018-12-29T15:35:15.763Z,9.90
2018-12-29T15:37:46.096Z,10.77
2018-12-29T15:40:21.896Z,10.87
2018-12-29T15:42:52.663Z,11.77
2018-12-29T15:45:23.210Z,11.37
2018-12-29T15:47:53.609Z,11.40
2018-12-29T15:50:23.933Z,10.10
2018-12-29T15:53:04.866Z,10.73
2018-12-29T15:55:35.264Z,12.17
2018-12-29T15:58:05.918Z,10.63
2018-12-29T16:00:42.737Z,9.90
2018-12-29T16:03:25.234Z,10.17
2018-12-29T16:06:03.373Z,11.73
2018-12-29T16:08:33.714Z,10.50
2018-12-29T16:11:10.038Z,10.53
2018-12-29T16:13:53.140Z,10.13
2018-12-29T16:16:38.434Z,9.33
2018-12-29T16:19:01.441Z,10.73
2018-12-29T16:21:31.870Z,9.93
2018-12-29T16:24:02.504Z,10.17
2018-12-29T16:26:52.148Z,10.70
2018-12-29T16:32:11.813Z,10.70
2018-12-29T16:34:42.448Z,11.80
2018-12-29T16:37:15.085Z,11.47
2018-12-29T16:39:51.514Z,10.60
2018-12-29T16:42:21.807Z,10.83
2018-12-29T16:44:52.424Z,10.17
2018-12-29T16:47:22.984Z,10.77
2018-12-29T16:49:53.455Z,11.27
2018-12-29T16:52:34.308Z,11.10
2018-12-29T16:55:25.723Z,12.60
2018-12-29T16:58:16.688Z,12.40
2018-12-29T17:00:47.353Z,12.63
2018-12-29T17:03:17.687Z,11.30
2018-12-29T17:05:48.280Z,12.27
2018-12-29T17:08:24.769Z,13.53
2018-12-29T17:10:55.704Z,12.17
2018-12-29T17:13:28.504Z,11.37
2018-12-29T17:15:58.850Z,13.40
2018-12-29T17:18:29.159Z,13.20
2018-12-29T17:20:59.441Z,13.53
2018-12-29T17:23:29.779Z,12.80
2018-12-29T17:26:06.329Z,13.00
2018-12-29T17:28:50.958Z,21.70
2018-12-29T17:31:31.649Z,18.63
2018-12-29T17:34:02.862Z,14.30
2018-12-29T17:36:33.183Z,15.07
2018-12-29T17:42:00.691Z,14.17
2018-12-29T17:44:31.068Z,14.00
2018-12-29T17:47:13.532Z,13.57
2018-12-29T17:49:43.865Z,14.70
2018-12-29T17:52:14.250Z,13.17
2018-12-29T17:54:44.620Z,13.07
2018-12-29T18:00:06.460Z,12.63
2018-12-29T18:02:36.837Z,13.63
2018-12-29T18:07:59.095Z,12.83
2018-12-29T18:10:36.024Z,12.73
2018-12-29T18:13:06.400Z,13.40
2018-12-29T18:15:36.722Z,14.80
2018-12-29T18:18:07.236Z,13.97
2018-12-29T18:20:48.190Z,16.03
2018-12-29T18:23:30.888Z,14.83
2018-12-29T18:25:59.713Z,13.33
2018-12-29T18:28:30.061Z,12.07
2018-12-29T18:31:00.530Z,13.47
2018-12-29T18:33:37.249Z,11.40
2018-12-29T18:39:20.917Z,11.00
2018-12-29T18:41:51.223Z,11.30
2018-12-29T18:44:21.552Z,12.37
2018-12-29T18:47:11.324Z,12.07
2018-12-29T18:52:50.762Z,12.93
2018-12-29T18:55:21.082Z,16.80
2018-12-29T18:57:52.003Z,12.60
2018-12-29T19:00:22.424Z,11.17
2018-12-29T19:02:52.852Z,12.07
2018-12-29T19:08:12.917Z,12.23
2018-12-29T19:13:45.292Z,11.00
2018-12-29T19:16:16.205Z,12.40
2018-12-29T19:18:46.591Z,12.13
2018-12-29T19:21:17.399Z,11.53
2018-12-29T19:23:54.757Z,10.97
2018-12-29T19:26:25.381Z,12.17
2018-12-29T19:28:55.988Z,11.80
2018-12-29T19:31:26.328Z,11.73
2018-12-29T19:33:56.987Z,11.97
2018-12-29T19:36:29.011Z,11.03
2018-12-29T19:39:25.617Z,11.57
2018-12-29T19:41:55.992Z,11.10
2018-12-29T19:44:36.929Z,11.90
2018-12-29T19:49:56.795Z,11.83
2018-12-29T19:52:27.603Z,11.53
2018-12-29T19:54:57.905Z,11.93
2018-12-29T19:57:39.731Z,11.07
2018-12-29T20:00:11.402Z,12.63
2018-12-29T20:02:49.227Z,12.30
2018-12-29T20:05:19.970Z,12.77
2018-12-29T20:08:09.729Z,12.17
2018-12-29T20:10:40.067Z,12.60
2018-12-29T20:13:10.407Z,12.33
2018-12-29T20:15:40.781Z,10.63
2018-12-29T20:18:11.105Z,11.50
2018-12-29T20:20:41.478Z,13.43
2018-12-29T20:23:18.349Z,11.97
2018-12-29T20:28:38.983Z,13.17
2018-12-29T20:31:19.795Z,16.90
2018-12-29T20:33:50.522Z,11.40
2018-12-29T20:36:20.895Z,17.93
2018-12-29T20:38:51.222Z,12.77
2018-12-29T20:44:34.008Z,15.03
2018-12-29T20:47:06.719Z,13.33
2018-12-29T20:50:01.008Z,18.83
2018-12-29T20:52:15.944Z,19.50
2018-12-29T20:55:06.415Z,13.80
2018-12-29T20:57:36.993Z,11.03
2018-12-29T21:00:08.887Z,12.50
2018-12-29T21:02:39.231Z,17.30
2018-12-29T21:05:09.808Z,9.47
2018-12-29T21:10:32.249Z,15.63
2018-12-29T21:15:59.864Z,10.43
2018-12-29T21:18:37.905Z,11.83
2018-12-29T21:21:08.617Z,10.87
2018-12-29T21:23:38.964Z,11.07
2018-12-29T21:26:28.313Z,11.23
2018-12-29T21:28:58.609Z,12.73
2018-12-29T21:31:28.996Z,13.97
2018-12-29T21:34:20.069Z,14.03
2018-12-29T21:36:50.943Z,12.03
2018-12-29T21:39:43.093Z,12.23
2018-12-29T21:42:15.040Z,11.97
2018-12-29T21:44:45.438Z,12.10
2018-12-29T21:47:34.866Z,12.97
2018-12-29T21:50:06.352Z,12.20
2018-12-29T21:52:38.540Z,13.93
2018-12-29T21:55:08.855Z,12.33
2018-12-29T21:57:39.437Z,12.63
2018-12-29T22:00:11.757Z,18.57
2018-12-29T22:02:42.234Z,14.37
2018-12-29T22:08:33.759Z,12.60
2018-12-29T22:11:45.928Z,10.77
2018-12-29T22:14:12.382Z,11.07
2018-12-29T22:16:49.415Z,11.73
2018-12-29T22:19:21.896Z,12.57
2018-12-29T22:21:52.269Z,15.07
2018-12-29T22:24:22.956Z,11.83
2018-12-29T22:26:53.275Z,13.17
2018-12-29T22:29:23.706Z,11.83
2018-12-29T22:31:56.581Z,12.37
2018-12-29T22:37:30.881Z,12.73
2018-12-29T22:40:01.486Z,13.47
2018-12-29T22:42:31.913Z,11.70
2018-12-29T22:45:02.242Z,11.80
2018-12-29T22:47:33.537Z,12.03
2018-12-29T22:53:13.634Z,11.70
2018-12-29T22:55:43.934Z,12.03
2018-12-29T22:58:14.446Z,13.73
2018-12-29T23:01:05.390Z,12.57
2018-12-29T23:03:36.005Z,12.40
2018-12-29T23:06:06.590Z,12.43
2018-12-29T23:08:37.191Z,12.37
2018-12-29T23:11:14.108Z,13.30
2018-12-29T23:13:47.756Z,12.50
2018-12-29T23:16:20.587Z,12.80
2018-12-29T23:19:03.544Z,11.83
2018-12-29T23:21:51.810Z,12.87
2018-12-29T23:24:22.577Z,11.50
2018-12-29T23:26:52.959Z,12.23
2018-12-29T23:29:23.705Z,13.00
2018-12-29T23:31:54.009Z,13.37
2018-12-29T23:34:24.735Z,12.40
2018-12-29T23:37:13.016Z,12.33
2018-12-29T23:39:43.599Z,12.33
2018-12-29T23:42:14.079Z,12.33
2018-12-29T23:45:24.053Z,12.80
2018-12-29T23:47:54.369Z,14.70
2018-12-29T23:50:49.182Z,15.10
2018-12-29T23:53:09.488Z,14.20
2018-12-29T23:55:56.700Z,13.50
2018-12-29T23:58:48.221Z,13.27
